Flight Track Log - Related Links

Times and Time Zones

All times are in EDT time to prevent confusion due to time zone crossing. See the DAL571 flight status page for this flight to view local times or setup timezone preferences in your user account.

Time Position Orientation Groundspeed Altitude Reporting Facility
EDT Latitude Longitude Course Direction KTS MPH feet Rate Location/Type
Tue 10:01:31 AM 33.6289 -84.3656 145° Southeast 457 526 2,900  Level Atlanta Center
Tue 10:01:48 AM 33.6167 -84.3500 133° Southeast 223 257 3,300 2,197 Climbing Atlanta TRACON
Tue 10:02:42 AM 33.5833 -84.2833 121° Southeast 277 319 5,500 2,540 Climbing Atlanta TRACON
Tue 10:03:00 AM 33.3438 -84.2270 140° Southeast  Level FlightAware Approximate
Tue 10:04:00 AM 33.2410 -84.1240 140° Southeast  Level FlightAware Approximate
Tue 10:04:31 AM 33.4517 -84.2778 178° South 294 338 10,200  Level Atlanta Center
Tue 10:05:00 AM 33.1381 -84.0213 140° Southeast  Level FlightAware Approximate
Tue 10:05:31 AM 33.3661 -84.2603 170° South 308 354 11,600  Level Atlanta Center
Tue 10:06:00 AM 33.0366 -83.9276 145° Southeast  Level FlightAware Approximate
Tue 10:06:31 AM 33.2850 -84.1756 139° Southeast 330 380 13,700  Level Atlanta Center
Tue 10:07:31 AM 33.1994 -84.0886 140° Southeast 383 441 16,100 2,100 Climbing Atlanta Center
Tue 10:09:31 AM 33.0094 -83.9125 142° Southeast 410 472 20,000 7,300 Climbing Atlanta Center
Tue 10:10:31 AM 32.9092 -83.8286 145° Southeast 426 490 38,000 1,700 Climbing Atlanta Center
Tue 10:11:31 AM 32.8067 -83.7447 145° Southeast 445 512 23,400 -6,550 Descending Atlanta Center
Tue 10:12:31 AM 32.7019 -83.6561 145° Southeast 457 526 24,900 1,450 Climbing Atlanta Center
Tue 10:13:31 AM 32.6014 -83.5581 141° Southeast 457 526 26,300 1,350 Climbing Atlanta Center
Tue 10:14:31 AM 32.4986 -83.4575 140° Southeast 468 539 27,600 1,300 Climbing Atlanta Center
Tue 10:15:31 AM 32.3958 -83.3525 139° Southeast 479 551 28,900 1,250 Climbing Atlanta Center
Tue 10:16:31 AM 32.3036 -83.2622 140° Southeast 479 551 30,100 1,200 Climbing Atlanta Center
Tue 10:17:31 AM 32.1983 -83.1578 140° Southeast 479 551 31,300 1,200 Climbing Atlanta Center
Tue 10:18:31 AM 32.0953 -83.0558 140° Southeast 479 551 32,500 1,244 Climbing Atlanta Center
Tue 10:20:15 AM 31.9161 -82.8756 139° Southeast 494 568 34,700 1,134 Climbing Jacksonville Center
Tue 10:21:15 AM 31.8117 -82.7753 141° Southeast 494 568 35,600 650 Climbing Jacksonville Center
Tue 10:22:15 AM 31.7092 -82.6728 140° Southeast 487 560 36,000 200 Climbing Jacksonville Center
Tue 10:23:15 AM 31.5878 -82.5803 147° Southeast 487 560 36,000  Level Jacksonville Center
Tue 10:24:15 AM 31.4706 -82.5028 151° Southeast 487 560 36,000  Level Jacksonville Center
Tue 10:25:15 AM 31.3556 -82.4256 150° Southeast 482 555 36,000  Level Jacksonville Center
Tue 10:26:16 AM 31.2531 -82.3628 152° Southeast 476 548 36,000  Level Jacksonville Center
Tue 10:27:15 AM 31.1336 -82.2858 151° Southeast 476 548 36,000  Level Jacksonville Center
Tue 10:28:15 AM 31.0206 -82.2089 150° Southeast 476 548 36,000  Level Jacksonville Center
Tue 10:29:15 AM 30.9011 -82.1322 151° Southeast 482 555 36,000  Level Jacksonville Center
Tue 10:30:15 AM 30.7836 -82.0583 152° Southeast 482 555 36,000  Level Jacksonville Center
Tue 10:31:15 AM 30.6683 -81.9819 150° Southeast 482 555 36,000 500 Level Jacksonville Center
Tue 10:32:15 AM 30.5383 -81.8939 150° Southeast 482 555 37,000 850 Climbing Jacksonville Center
Tue 10:33:15 AM 30.4206 -81.8181 151° Southeast 491 565 37,700 500 Climbing Jacksonville Center
Tue 10:34:15 AM 30.3072 -81.7353 148° Southeast 486 559 38,000 150 Climbing Jacksonville Center
Tue 10:35:15 AM 30.1936 -81.6500 147° Southeast 486 559 38,000  Level Jacksonville Center
Tue 10:36:15 AM 30.0861 -81.5578 143° Southeast 486 559 38,000  Level Jacksonville Center
Tue 10:37:16 AM 29.9767 -81.4633 143° Southeast 486 559 38,000  Level Jacksonville Center
Tue 10:38:15 AM 29.8669 -81.3742 145° Southeast 486 559 38,000  Level Jacksonville Center
Tue 10:39:15 AM 29.7575 -81.2825 144° Southeast 486 559 38,000  Level Jacksonville Center
Tue 10:40:15 AM 29.6478 -81.1933 145° Southeast 486 559 38,000 50 Level Jacksonville Center
Tue 10:41:15 AM 29.5400 -81.1022 144° Southeast 486 559 38,100  Climbing Jacksonville Center
Tue 10:42:15 AM 29.4447 -81.0206 143° Southeast 479 551 38,000 -50 Descending Jacksonville Center
Tue 10:43:15 AM 29.3350 -80.9250 143° Southeast 479 551 38,000  Level Jacksonville Center
Tue 10:44:03 AM 29.2444 -80.8542 146° Southeast 492 566 38,000  Level Miami Center
Tue 10:45:03 AM 29.1342 -80.7647 145° Southeast 497 572 38,000  Level Miami Center
Tue 10:46:03 AM 29.0239 -80.6753 145° Southeast 497 572 38,000  Level Miami Center
Tue 10:47:03 AM 28.9056 -80.5739 143° Southeast 492 566 38,000  Level Miami Center
Tue 10:48:03 AM 28.7953 -80.4825 144° Southeast 481 554 38,000  Level Miami Center
Tue 10:49:03 AM 28.6972 -80.4014 144° Southeast 492 566 38,000  Level Miami Center
Tue 10:50:03 AM 28.5867 -80.3103 144° Southeast 492 566 38,000  Level Miami Center
Tue 10:51:03 AM 28.4661 -80.2122 144° Southeast 490 564 38,000  Level Miami Center
Tue 10:52:03 AM 28.3575 -80.1242 144° Southeast 490 564 38,000  Level Miami Center
Tue 10:53:03 AM 28.2467 -80.0336 144° Southeast 490 564 38,000  Level Miami Center
Tue 10:54:03 AM 28.1461 -79.9531 145° Southeast 487 560 38,000  Level Miami Center
Tue 10:55:03 AM 28.0333 -79.8653 146° Southeast 494 568 38,000  Level Miami Center
Tue 10:56:03 AM 27.9244 -79.7803 145° Southeast 494 568 38,000  Level Miami Center
Tue 10:57:03 AM 27.8053 -79.6808 144° Southeast 482 555 38,000  Level Miami Center
Tue 10:58:03 AM 27.7067 -79.5986 144° Southeast 488 562 38,000  Level Miami Center
Tue 10:59:03 AM 27.5978 -79.5117 145° Southeast 488 562 38,000  Level Miami Center
Tue 11:00:03 AM 27.4761 -79.4153 145° Southeast 488 562 38,000  Level Miami Center
Tue 11:01:03 AM 27.3650 -79.3311 146° Southeast 488 562 38,000  Level Miami Center
Tue 11:02:03 AM 27.2536 -79.2444 145° Southeast 493 567 38,000  Level Miami Center
Tue 11:03:03 AM 27.1547 -79.1631 144° Southeast 488 562 38,000  Level Miami Center
Tue 11:04:03 AM 27.0308 -79.0675 146° Southeast 488 562 38,000 300 Level Miami Center
Tue 11:05:03 AM 26.9319 -78.9678 138° Southeast 488 562 38,600 450 Climbing Miami Center
Tue 11:06:03 AM 26.8522 -78.8406 125° Southeast 483 556 38,900 200 Climbing Miami Center
Tue 11:07:03 AM 26.7683 -78.7156 127° Southeast 494 568 39,000 100 Climbing Miami Center
Tue 11:08:03 AM 26.6800 -78.5911 128° Southeast 500 575 39,100  Climbing Miami Center
Tue 11:09:03 AM 26.6022 -78.4644 124° Southeast 500 575 39,000 -100 Descending Miami Center
Tue 11:10:03 AM 26.5178 -78.3403 127° Southeast 500 575 38,900  Descending Miami Center
Tue 11:11:03 AM 26.4439 -78.2094 122° Southeast 501 577 39,000 50 Climbing Miami Center
Tue 11:12:03 AM 26.3656 -78.0764 123° Southeast 507 583 39,000  Level Miami Center
Tue 11:13:03 AM 26.2872 -77.9433 123° Southeast 512 589 39,000  Level Miami Center
Tue 11:14:03 AM 26.2086 -77.8153 124° Southeast 512 589 39,000  Level Miami Center
Tue 11:15:03 AM 26.1322 -77.6872 124° Southeast 512 589 39,000 50 Level Miami Center
Tue 11:16:03 AM 26.0536 -77.5572 124° Southeast 512 589 39,100  Climbing Miami Center
Tue 11:17:03 AM 25.9808 -77.4389 124° Southeast 517 595 39,000 -50 Descending Miami Center
Tue 11:18:03 AM 25.9019 -77.3092 124° Southeast 510 587 39,000  Level Miami Center
Tue 11:19:03 AM 25.8250 -77.1819 124° Southeast 510 587 39,000 50 Level Miami Center
Tue 11:20:03 AM 25.7458 -77.0503 124° Southeast 515 593 39,100  Climbing Miami Center
Tue 11:21:03 AM 25.6644 -76.9211 125° Southeast 510 587 39,000 -50 Descending Miami Center
Tue 11:22:03 AM 25.5828 -76.7919 125° Southeast 510 587 39,000  Level Miami Center
Tue 11:23:03 AM 25.5033 -76.6583 123° Southeast 510 587 39,000  Level Miami Center
Tue 11:24:03 AM 25.4236 -76.5319 125° Southeast 510 587 39,000  Level Miami Center
Tue 11:25:03 AM 25.3417 -76.3989 124° Southeast 515 593 39,000  Level Miami Center
Tue 11:26:03 AM 25.2597 -76.2681 125° Southeast 515 593 39,000  Level Miami Center
Tue 11:27:03 AM 25.1714 -76.1239 124° Southeast 515 593 39,000  Level Miami Center
Tue 11:28:03 AM 25.0850 -75.9936 126° Southeast 515 593 39,000  Level Miami Center
Tue 11:29:03 AM 25.0047 -75.8614 124° Southeast 515 593 39,000  Level Miami Center
Tue 11:30:03 AM 24.9200 -75.7267 125° Southeast 521 600 39,000 50 Level Miami Center
Tue 11:31:03 AM 24.8397 -75.5969 124° Southeast 516 594 39,100  Climbing Miami Center
Tue 11:32:03 AM 24.7486 -75.4675 128° Southeast 516 594 39,000  Descending Miami Center
Tue 11:33:03 AM 24.6719 -75.3333 122° Southeast 516 594 39,100  Climbing Miami Center
Tue 11:34:03 AM 24.5892 -75.2042 125° Southeast 516 594 39,000 -50 Descending Miami Center
Tue 11:35:03 AM 24.5061 -75.0753 125° Southeast 516 594 39,000  Level Miami Center
Tue 11:36:03 AM 24.4208 -74.9439 125° Southeast 516 594 39,000  Level Miami Center
Tue 11:37:03 AM 24.3314 -74.8153 127° Southeast 521 600 39,000  Level Miami Center
Tue 11:38:03 AM 24.2522 -74.6822 123° Southeast 521 600 39,000  Level Miami Center
Tue 11:39:03 AM 24.1728 -74.5492 123° Southeast 521 600 39,000  Level Miami Center
Tue 11:40:03 AM 24.0853 -74.4233 127° Southeast 521 600 39,000  Level Miami Center
Tue 11:41:03 AM 24.0014 -74.2908 125° Southeast 521 600 39,000  Level Miami Center
Tue 11:42:03 AM 23.9197 -74.1608 124° Southeast 521 600 39,000  Level Miami Center
Tue 11:43:03 AM 23.8317 -74.0331 127° Southeast 521 600 39,000  Level Miami Center
Tue 11:44:03 AM 23.7417 -73.9058 128° Southeast 527 606 39,000  Level Miami Center
Tue 11:45:03 AM 23.6533 -73.7742 126° Southeast 527 606 39,000  Level Miami Center
Tue 11:46:03 AM 23.5711 -73.6425 124° Southeast 527 606 39,000  Level Miami Center
Tue 11:47:03 AM 23.4786 -73.5156 128° Southeast 527 606 39,000  Level Miami Center
Tue 11:48:03 AM 23.3981 -73.3797 123° Southeast 532 612 39,000  Level Miami Center
Tue 11:49:03 AM 23.3075 -73.2533 128° Southeast 532 612 39,000  Level Miami Center
Tue 11:50:03 AM 23.2186 -73.1225 126° Southeast 537 618 39,000  Level Miami Center
Tue 11:51:03 AM 23.1358 -72.9872 124° Southeast 537 618 39,000  Level Miami Center
Tue 11:52:03 AM 23.0444 -72.8544 127° Southeast 537 618 39,000 50 Level Miami Center
Tue 11:53:03 AM 22.9575 -72.7219 125° Southeast 542 624 39,100  Climbing Miami Center
Tue 11:54:03 AM 22.8683 -72.5919 127° Southeast 542 624 39,000 -50 Descending Miami Center
Tue 11:55:03 AM 22.7808 -72.4597 126° Southeast 542 624 39,000  Level Miami Center
Tue 11:56:03 AM 22.6894 -72.3300 127° Southeast 542 624 39,000  Level Miami Center
Tue 11:57:03 AM 22.6039 -72.1981 125° Southeast 537 618 39,000  Level Miami Center
Tue 11:58:03 AM 22.5186 -72.0686 125° Southeast 537 618 39,000  Level Miami Center
Tue 11:59:03 AM 22.4286 -71.9394 127° Southeast 537 618 39,000  Level Miami Center
Tue 12:00:03 PM 22.3389 -71.8106 127° Southeast 537 618 39,000  Level Miami Center
Tue 12:01:03 PM 22.2511 -71.6839 127° Southeast 537 618 39,000 50 Level Miami Center
Tue 12:02:03 PM 22.1653 -71.5550 126° Southeast 537 618 39,100  Climbing Miami Center
Tue 12:03:03 PM 22.0775 -71.4286 127° Southeast 537 618 39,000 -50 Descending Miami Center
Tue 12:04:03 PM 21.9892 -71.2981 126° Southeast 537 618 39,000 50 Level Miami Center
Tue 12:05:03 PM 21.9033 -71.1719 126° Southeast 537 618 39,100  Climbing Miami Center
Tue 12:06:03 PM 21.8150 -71.0417 126° Southeast 537 618 39,000 -50 Descending Miami Center
Tue 12:07:03 PM 21.7244 -70.9117 127° Southeast 542 624 39,000  Level Miami Center
Tue 12:08:03 PM 21.6428 -70.7994 128° Southeast 542 624 39,000  Level Miami Center
Tue 12:09:03 PM 21.5522 -70.6697 127° Southeast 542 624 39,000  Level Miami Center
Tue 12:10:03 PM 21.4614 -70.5425 127° Southeast 542 624 39,000  Level Miami Center
Tue 12:11:03 PM 21.3706 -70.4156 128° Southeast 542 624 39,000  Level Miami Center
Tue 12:12:03 PM 21.2819 -70.2908 127° Southeast 542 624 39,000  Level Miami Center
Tue 12:13:03 PM 21.1911 -70.1664 128° Southeast 542 624 39,000  Level Miami Center
Tue 12:14:03 PM 21.1000 -70.0375 127° Southeast 542 624 39,000  Level Miami Center
Tue 12:15:03 PM 21.0111 -69.9111 127° Southeast 542 624 39,000  Level Miami Center
Tue 12:16:03 PM 20.9219 -69.7847 127° Southeast 537 618 39,000  Level Miami Center
Tue 12:17:03 PM 20.8308 -69.6611 128° Southeast 537 618 39,000  Level Miami Center
Tue 12:18:03 PM 20.7436 -69.5372 127° Southeast 537 618 39,000 50 Level Miami Center
Tue 12:19:03 PM 20.6503 -69.4117 128° Southeast 542 624 39,100 50 Climbing Miami Center
Tue 12:20:03 PM 20.5650 -69.2836 125° Southeast 537 618 39,100 -50 Level Miami Center
Tue 12:21:03 PM 20.4736 -69.1606 128° Southeast 537 618 39,000 -50 Descending Miami Center
Tue 12:22:03 PM 20.3819 -69.0375 128° Southeast 537 618 39,000  Level Miami Center
Tue 12:23:03 PM 20.2944 -68.9100 126° Southeast 537 618 39,000  Level Miami Center
Tue 12:24:03 PM 20.2125 -68.7781 123° Southeast 537 618 39,000  Level Miami Center
Tue 12:25:03 PM 20.1447 -68.6344 117° Southeast 537 618 39,000 -50 Level Miami Center
Tue 12:26:03 PM 20.0833 -68.4969 115° Southeast 530 610 38,900 -650 Descending Miami Center
Tue 12:27:03 PM 20.0172 -68.3536 116° Southeast 530 610 37,700 -950 Descending Miami Center
Tue 12:28:03 PM 19.9514 -68.2125 116° Southeast 535 616 37,000 -350 Descending Miami Center
Tue 12:29:03 PM 19.8911 -68.0644 113° Southeast 535 616 37,000  Level Miami Center
Tue 12:29:25 PM 19.8667 -67.9833 108° East 530 610 37,000  Level San Juan Center
Tue 12:30:26 PM 19.8000 -67.8500 118° Southeast 540 621 37,000  Level San Juan Center
Tue 12:31:26 PM 19.7333 -67.7000 115° Southeast 530 610 37,000  Level San Juan Center
Tue 12:32:26 PM 19.6667 -67.5500 115° Southeast 540 621 37,000  Level San Juan Center
Tue 12:33:27 PM 19.6000 -67.4167 118° Southeast 540 621 37,000  Level San Juan Center
Tue 12:34:27 PM 19.5333 -67.2667 115° Southeast 540 621 37,000  Level San Juan Center
Tue 12:35:27 PM 19.4667 -67.1167 115° Southeast 540 621 37,000 -545 Level San Juan Center
Tue 12:36:28 PM 19.4000 -66.9833 118° Southeast 540 621 35,900 -992 Descending San Juan Center
Tue 12:37:28 PM 19.3500 -66.8333 109° East 540 621 35,000 -500 Descending San Juan Center
Tue 12:38:28 PM 19.2833 -66.6833 115° Southeast 540 621 34,900 -1,450 Descending San Juan Center
Tue 12:39:28 PM 19.2167 -66.5500 118° Southeast 540 621 32,100 -3,025 Descending San Juan Center
Tue 12:40:29 PM 19.1500 -66.4000 115° Southeast 540 621 28,800 -3,124 Descending San Juan Center
Tue 12:41:29 PM 19.0833 -66.2500 115° Southeast 540 621 25,800 -2,750 Descending San Juan Center
Tue 12:42:29 PM 19.0167 -66.1167 118° Southeast 510 587 23,300 -2,479 Descending San Juan Center
Tue 12:43:30 PM 18.9500 -65.9833 118° Southeast 480 552 20,800 -2,380 Descending San Juan Center
Tue 12:44:30 PM 18.9000 -65.8667 114° Southeast 450 518 18,500 -2,150 Descending San Juan Center
Tue 12:45:30 PM 18.8500 -65.7500 114° Southeast 430 495 16,500 -2,132 Descending San Juan Center
Tue 12:46:31 PM 18.8000 -65.6500 118° Southeast 410 472 14,200 -2,132 Descending San Juan Center
Tue 12:47:31 PM 18.7500 -65.5333 114° Southeast 390 449 12,200 -2,050 Descending San Juan Center
Tue 12:48:31 PM 18.7000 -65.4333 118° Southeast 370 426 10,100 -1,686 Descending San Juan Center
Tue 12:49:32 PM 18.6333 -65.3667 137° Southeast 340 391 8,800 -1,438 Descending San Juan Center
Tue 12:50:32 PM 18.5667 -65.3333 155° Southeast 280 322 7,200 -1,400 Descending San Juan Center
Tue 12:51:32 PM 18.5000 -65.3167 167° South 270 311 6,000 -992 Descending San Juan Center
Tue 12:52:33 PM 18.4333 -65.2833 155° Southeast 230 265 5,200 -992 Descending San Juan Center
Tue 12:53:33 PM 18.3833 -65.2667 162° South 210 242 4,000 -1,200 Descending San Juan Center
Tue 12:54:33 PM 18.3333 -65.2500 162° South 190 219 2,800 -600 Descending San Juan Center
Tue 12:55:33 PM 18.3167 -65.2000 109° East 180 207 2,800  Level San Juan Center
Tue 12:56:34 PM 18.3167 -65.1500 90° East 180 207 2,800 -298 Level San Juan Center
Tue 12:57:34 PM 18.3167 -65.1000 90° East 180 207 2,200 -600 Descending San Juan Center

Login

Don't have an account? Register now (free) for customized features, flight alerts, and more!